Flight Track Log - Related Links

Times and Time Zones

All times are in EDT time to prevent confusion due to time zone crossing. See the SKW6345 flight status page for this flight to view local times or setup timezone preferences in your user account.

Time Position Orientation Groundspeed Altitude Reporting Facility
EDT Latitude Longitude Course Direction KTS MPH feet Rate Location/Type
Thu 11:20:26 AM 37.6667 -122.3167 38° Northeast 197 227 2,200  Level Northern Cal TRACON
Thu 11:21:21 AM 37.7000 -122.2667 50° Northeast 220 253 4,600 2,452 Climbing Northern Cal TRACON
Thu 11:22:00 AM 37.6343 -122.4221 120° Southeast  Level FlightAware Approximate
Thu 11:22:21 AM 37.7500 -122.2167 38° Northeast 247 284 6,900  Level Northern Cal TRACON
Thu 11:23:00 AM 37.6804 -122.3030 38° Northeast  Level FlightAware Approximate
Thu 11:23:20 AM 37.8167 -122.1500 38° Northeast 283 326 8,800  Level Northern Cal TRACON
Thu 11:24:00 AM 37.7822 -122.2012 38° Northeast  Level FlightAware Approximate
Thu 11:24:15 AM 37.8833 -122.1000 31° Northeast 296 341 10,700  Level Northern Cal TRACON
Thu 11:25:00 AM 37.8721 -122.1112 38° Northeast  Level FlightAware Approximate
Thu 11:25:15 AM 37.9425 -122.0381 40° Northeast 308 354 12,400  Level Oakland Center
Thu 11:26:17 AM 38.0122 -121.9717 37° Northeast 316 364 14,500 1,951 Climbing Oakland Center
Thu 11:27:18 AM 38.0836 -121.9028 37° Northeast 323 372 16,400 1,672 Climbing Oakland Center
Thu 11:28:19 AM 38.1569 -121.8306 38° Northeast 336 387 17,900 1,415 Climbing Oakland Center
Thu 11:29:21 AM 38.2344 -121.7564 37° Northeast 350 403 19,300 1,317 Climbing Oakland Center
Thu 11:30:22 AM 38.3133 -121.6792 38° Northeast 359 413 20,600 1,475 Climbing Oakland Center
Thu 11:31:23 AM 38.4108 -121.5844 37° Northeast 366 421 22,300 1,512 Climbing Oakland Center
Thu 11:32:25 AM 38.4811 -121.4897 47° Northeast 366 421 23,700 1,220 Climbing Oakland Center
Thu 11:33:26 AM 38.5592 -121.4061 40° Northeast 373 429 24,800 1,033 Climbing Oakland Center
Thu 11:34:27 AM 38.6514 -121.3325 32° Northeast 385 443 25,800 1,024 Climbing Oakland Center
Thu 11:35:29 AM 38.7478 -121.2539 32° Northeast 389 448 26,900 780 Climbing Oakland Center
Thu 11:36:30 AM 38.8428 -121.1764 32° Northeast 401 461 27,400 492 Climbing Oakland Center
Thu 11:37:31 AM 38.9408 -121.0947 33° Northeast 416 479 27,900 537 Climbing Oakland Center
Thu 11:38:33 AM 39.0406 -121.0128 33° Northeast 425 489 28,500 634 Climbing Oakland Center
Thu 11:39:34 AM 39.1406 -120.9292 33° Northeast 428 493 29,200 738 Climbing Oakland Center
Thu 11:40:35 AM 39.2419 -120.8447 33° Northeast 432 497 30,000 732 Climbing Oakland Center
Thu 11:41:37 AM 39.3436 -120.7586 33° Northeast 435 501 30,700 683 Climbing Oakland Center
Thu 11:42:38 AM 39.4458 -120.6728 33° Northeast 437 503 31,400 639 Climbing Oakland Center
Thu 11:43:39 AM 39.5669 -120.5711 33° Northeast 434 499 32,000 293 Climbing Oakland Center
Thu 11:44:41 AM 39.6700 -120.4819 34° Northeast 442 509 32,000  Level Oakland Center
Thu 11:45:42 AM 39.7781 -120.3928 32° Northeast 457 526 32,000  Level Oakland Center
Thu 11:46:43 AM 39.8847 -120.3008 33° Northeast 461 531 32,000  Level Oakland Center
Thu 11:47:45 AM 39.9914 -120.2092 33° Northeast 460 529 32,000  Level Oakland Center
Thu 11:48:46 AM 40.0972 -120.1189 33° Northeast 458 527 32,000  Level Oakland Center
Thu 11:49:47 AM 40.2042 -120.0275 33° Northeast 457 526 32,000 49 Level Oakland Center
Thu 11:50:49 AM 40.3092 -119.9356 34° Northeast 456 525 32,100 390 Climbing Oakland Center
Thu 11:51:50 AM 40.4167 -119.8428 33° Northeast 458 527 32,800 439 Climbing Oakland Center
Thu 11:52:52 AM 40.5222 -119.7511 33° Northeast 455 524 33,000 98 Climbing Oakland Center
Thu 11:53:53 AM 40.6489 -119.6381 34° Northeast 457 526 33,000  Level Oakland Center
Thu 11:54:54 AM 40.7539 -119.5456 34° Northeast 455 524 33,000  Level Oakland Center
Thu 11:55:56 AM 40.8597 -119.4533 33° Northeast 452 520 33,000  Level Oakland Center
Thu 11:56:57 AM 40.9583 -119.3636 34° Northeast 450 518 33,000  Level Oakland Center
Thu 11:57:59 AM 41.0603 -119.2758 33° Northeast 452 520 33,000  Level Oakland Center
Thu 11:59:00 AM 41.1744 -119.1742 34° Northeast 447 514 33,000  Level Oakland Center
Thu 12:00:02 PM 41.2742 -119.0833 34° Northeast 449 517 33,000  Level Oakland Center
Thu 12:01:03 PM 41.3889 -118.9806 34° Northeast 447 514 33,000 49 Level Oakland Center
Thu 12:02:04 PM 41.4867 -118.8928 34° Northeast 444 511 33,100 390 Climbing Oakland Center
Thu 12:03:06 PM 41.5839 -118.8039 34° Northeast 443 510 33,800 732 Climbing Oakland Center
Thu 12:04:07 PM 41.6964 -118.7014 34° Northeast 438 504 34,600 477 Climbing Oakland Center
Thu 12:05:37 PM 41.8364 -118.5717 35° Northeast 427 491 35,000 158 Climbing Salt Lake Center
Thu 12:06:39 PM 41.9469 -118.4706 34° Northeast 431 496 35,000  Level Salt Lake Center
Thu 12:07:41 PM 42.0442 -118.3822 34° Northeast 436 502 35,000  Level Salt Lake Center
Thu 12:08:43 PM 42.1564 -118.2769 35° Northeast 439 505 35,000  Level Salt Lake Center
Thu 12:09:45 PM 42.2531 -118.1861 35° Northeast 441 507 35,000  Level Salt Lake Center
Thu 12:10:47 PM 42.3578 -118.0861 35° Northeast 445 512 35,000  Level Salt Lake Center
Thu 12:11:49 PM 42.4550 -117.9933 35° Northeast 444 511 35,000  Level Salt Lake Center
Thu 12:12:51 PM 42.5681 -117.8858 35° Northeast 448 516 35,000  Level Salt Lake Center
Thu 12:13:53 PM 42.6439 -117.7681 49° Northeast 435 501 35,000  Level Salt Lake Center
Thu 12:14:55 PM 42.7239 -117.6203 54° Northeast 435 501 35,000  Level Salt Lake Center
Thu 12:15:57 PM 42.7928 -117.4939 53° Northeast 435 501 35,000  Level Salt Lake Center
Thu 12:16:59 PM 42.8714 -117.3447 54° Northeast 435 501 35,000  Level Salt Lake Center
Thu 12:18:01 PM 42.9406 -117.2183 53° Northeast 435 501 35,000  Level Salt Lake Center
Thu 12:19:03 PM 43.0197 -117.0694 54° Northeast 436 502 35,000  Level Salt Lake Center
Thu 12:20:06 PM 43.0875 -116.9408 54° Northeast 434 499 35,000  Level Salt Lake Center
Thu 12:21:08 PM 43.1675 -116.7908 54° Northeast 438 504 35,000  Level Salt Lake Center
Thu 12:22:10 PM 43.2353 -116.6625 54° Northeast 435 501 35,000  Level Salt Lake Center
Thu 12:23:12 PM 43.3144 -116.5106 54° Northeast 438 504 35,000  Level Salt Lake Center
Thu 12:24:14 PM 43.3828 -116.3825 54° Northeast 434 499 35,000  Level Salt Lake Center
Thu 12:25:16 PM 43.4614 -116.2303 55° Northeast 438 504 35,000  Level Salt Lake Center
Thu 12:26:18 PM 43.5278 -116.0997 55° Northeast 437 503 35,000  Level Salt Lake Center
Thu 12:27:20 PM 43.6058 -115.9481 55° Northeast 436 502 35,000  Level Salt Lake Center
Thu 12:28:22 PM 43.6728 -115.8172 55° Northeast 436 502 35,000  Level Salt Lake Center
Thu 12:29:24 PM 43.7506 -115.6647 55° Northeast 436 502 35,000  Level Salt Lake Center
Thu 12:30:26 PM 43.8169 -115.5336 55° Northeast 435 501 35,000  Level Salt Lake Center
Thu 12:31:28 PM 43.8936 -115.3811 55° Northeast 433 498 35,000  Level Salt Lake Center
Thu 12:32:30 PM 43.9603 -115.2497 55° Northeast 437 503 35,000  Level Salt Lake Center
Thu 12:33:32 PM 44.0367 -115.0950 55° Northeast 437 503 35,000  Level Salt Lake Center
Thu 12:34:34 PM 44.1022 -114.9644 55° Northeast 434 499 35,000  Level Salt Lake Center
Thu 12:35:36 PM 44.1783 -114.8089 56° Northeast 436 502 35,000  Level Salt Lake Center
Thu 12:36:38 PM 44.2442 -114.6758 55° Northeast 436 502 35,000  Level Salt Lake Center
Thu 12:37:40 PM 44.3092 -114.5422 56° Northeast 436 502 35,000  Level Salt Lake Center
Thu 12:38:42 PM 44.3858 -114.3853 56° Northeast 437 503 35,000  Level Salt Lake Center
Thu 12:39:44 PM 44.4525 -114.2514 55° Northeast 438 504 35,000  Level Salt Lake Center
Thu 12:40:46 PM 44.5281 -114.0931 56° Northeast 438 504 35,000  Level Salt Lake Center
Thu 12:41:48 PM 44.5919 -113.9583 56° Northeast 435 501 35,000  Level Salt Lake Center
Thu 12:42:51 PM 44.6608 -113.8072 57° Northeast 436 502 35,000  Level Salt Lake Center
Thu 12:43:53 PM 44.7353 -113.6481 57° Northeast 435 501 35,000  Level Salt Lake Center
Thu 12:44:55 PM 44.8011 -113.5122 56° Northeast 438 504 35,000  Level Salt Lake Center
Thu 12:45:57 PM 44.8753 -113.3522 57° Northeast 438 504 35,000  Level Salt Lake Center
Thu 12:46:59 PM 44.9397 -113.2164 56° Northeast 435 501 35,000 -581 Level Salt Lake Center
Thu 12:48:01 PM 45.0036 -113.0767 57° Northeast 440 506 33,800 -1,742 Descending Salt Lake Center
Thu 12:49:03 PM 45.0794 -112.9136 57° Northeast 443 510 31,400 -2,129 Descending Salt Lake Center
Thu 12:50:05 PM 45.1422 -112.7800 56° Northeast 427 491 29,400 -2,129 Descending Salt Lake Center
Thu 12:51:07 PM 45.2133 -112.6264 57° Northeast 415 478 27,000 -2,129 Descending Salt Lake Center
Thu 12:52:09 PM 45.2683 -112.5003 58° Northeast 398 458 25,000 -2,129 Descending Salt Lake Center
Thu 12:53:11 PM 45.3244 -112.3511 62° Northeast 387 445 22,600 -2,129 Descending Salt Lake Center
Thu 12:54:13 PM 45.3719 -112.2286 61° Northeast 377 434 20,600 -1,984 Descending Salt Lake Center
Thu 12:55:15 PM 45.4211 -112.1044 61° Northeast 365 420 18,500 -1,935 Descending Salt Lake Center
Thu 12:56:17 PM 45.4681 -111.9833 61° Northeast 353 406 16,600 -1,584 Descending Salt Lake Center
Thu 12:57:20 PM 45.5225 -111.8419 61° Northeast 344 396 15,200 -1,306 Descending Salt Lake Center
Thu 12:58:21 PM 45.5664 -111.7269 61° Northeast 333 383 13,900 -1,073 Descending Salt Lake Center
Thu 12:59:23 PM 45.6150 -111.6186 57° Northeast 328 377 13,000 -435 Descending Salt Lake Center
Thu 01:00:25 PM 45.6775 -111.5419 41° Northeast 298 343 13,000  Level Salt Lake Center
Thu 01:01:27 PM 45.7356 -111.4717 40° Northeast 286 329 13,000  Level Salt Lake Center
Thu 01:02:29 PM 45.7908 -111.4058 40° Northeast 266 306 13,000  Level Salt Lake Center
Thu 01:03:32 PM 45.8472 -111.3342 42° Northeast 265 305 13,000  Level Salt Lake Center
Thu 01:04:34 PM 45.9089 -111.3206 North 248 285 13,000  Level Salt Lake Center
Thu 01:05:36 PM 45.8817 -111.3989 243° Southwest 239 275 13,000  Level Salt Lake Center
Thu 01:06:38 PM 45.8136 -111.3792 169° South 251 289 13,000 -387 Level Salt Lake Center
Thu 01:07:40 PM 45.7456 -111.3453 161° South 260 299 12,200 -968 Descending Salt Lake Center
Thu 01:08:42 PM 45.6822 -111.3008 154° Southeast 259 298 11,000 -1,016 Descending Salt Lake Center
Thu 01:09:44 PM 45.6397 -111.2142 125° Southeast 237 273 10,100 -1,113 Descending Salt Lake Center
Thu 01:10:46 PM 45.6500 -111.1372 79° East 218 251 8,700 -1,306 Descending Salt Lake Center
Thu 01:11:48 PM 45.6778 -111.0872 51° Northeast 182 209 7,400 -1,306 Descending Salt Lake Center
Thu 01:12:50 PM 45.7189 -111.0750 12° North 171 197 6,000 -1,161 Descending Salt Lake Center
Thu 01:13:52 PM 45.7522 -111.1164 319° Northwest 163 188 5,000 -677 Descending Salt Lake Center
Thu 01:14:54 PM 45.7861 -111.1653 315° West 158 182 4,600 -387 Descending Salt Lake Center

Login

Don't have an account? Register now (free) for customized features, flight alerts, and more!